sensor_id;sensor_type;location;lat;lon;timestamp;temperature;humidity
69823;SHT31;57119;52.516;13.508;2022-07-23T00:00:26;16.15;91.82
69823;SHT31;57119;52.516;13.508;2022-07-23T00:02:52;16.09;91.72
69823;SHT31;57119;52.516;13.508;2022-07-23T00:05:17;16.02;92.01
69823;SHT31;57119;52.516;13.508;2022-07-23T00:07:43;16.08;91.89
69823;SHT31;57119;52.516;13.508;2022-07-23T00:10:08;16.12;91.74
69823;SHT31;57119;52.516;13.508;2022-07-23T00:12:34;16.02;91.71
69823;SHT31;57119;52.516;13.508;2022-07-23T00:15:00;16.00;92.30
69823;SHT31;57119;52.516;13.508;2022-07-23T00:17:26;16.02;92.16
69823;SHT31;57119;52.516;13.508;2022-07-23T00:19:51;15.95;92.00
69823;SHT31;57119;52.516;13.508;2022-07-23T00:22:18;15.94;92.21
69823;SHT31;57119;52.516;13.508;2022-07-23T00:24:43;15.98;92.36
69823;SHT31;57119;52.516;13.508;2022-07-23T00:27:09;15.92;92.22
69823;SHT31;57119;52.516;13.508;2022-07-23T00:29:34;16.01;91.48
69823;SHT31;57119;52.516;13.508;2022-07-23T00:32:00;15.98;91.79
69823;SHT31;57119;52.516;13.508;2022-07-23T00:34:25;16.04;91.38
69823;SHT31;57119;52.516;13.508;2022-07-23T00:36:50;16.06;91.63
69823;SHT31;57119;52.516;13.508;2022-07-23T00:39:18;16.11;91.84
69823;SHT31;57119;52.516;13.508;2022-07-23T00:41:44;16.16;91.47
69823;SHT31;57119;52.516;13.508;2022-07-23T00:44:20;16.23;91.27
69823;SHT31;57119;52.516;13.508;2022-07-23T00:46:48;16.25;89.95
69823;SHT31;57119;52.516;13.508;2022-07-23T00:49:14;16.26;89.65
69823;SHT31;57119;52.516;13.508;2022-07-23T00:51:39;16.46;88.51
69823;SHT31;57119;52.516;13.508;2022-07-23T00:54:05;16.60;87.45
69823;SHT31;57119;52.516;13.508;2022-07-23T00:56:30;16.73;86.39
69823;SHT31;57119;52.516;13.508;2022-07-23T00:58:56;16.91;85.70
69823;SHT31;57119;52.516;13.508;2022-07-23T01:01:22;16.95;85.37
69823;SHT31;57119;52.516;13.508;2022-07-23T01:03:47;16.92;86.06
69823;SHT31;57119;52.516;13.508;2022-07-23T01:06:13;17.00;85.66
69823;SHT31;57119;52.516;13.508;2022-07-23T01:08:38;16.98;85.84
69823;SHT31;57119;52.516;13.508;2022-07-23T01:11:04;17.07;85.38
69823;SHT31;57119;52.516;13.508;2022-07-23T01:13:30;17.11;85.14
69823;SHT31;57119;52.516;13.508;2022-07-23T01:15:55;17.25;84.22
69823;SHT31;57119;52.516;13.508;2022-07-23T01:18:20;17.31;84.13
69823;SHT31;57119;52.516;13.508;2022-07-23T01:20:46;17.38;84.01
69823;SHT31;57119;52.516;13.508;2022-07-23T01:23:11;17.31;84.40
69823;SHT31;57119;52.516;13.508;2022-07-23T01:25:36;17.19;85.13
69823;SHT31;57119;52.516;13.508;2022-07-23T01:28:02;17.10;85.38
69823;SHT31;57119;52.516;13.508;2022-07-23T01:30:28;17.01;86.06
69823;SHT31;57119;52.516;13.508;2022-07-23T01:32:53;16.91;86.63
69823;SHT31;57119;52.516;13.508;2022-07-23T01:35:18;16.76;86.90
69823;SHT31;57119;52.516;13.508;2022-07-23T01:37:44;16.57;87.61
69823;SHT31;57119;52.516;13.508;2022-07-23T01:40:09;16.52;88.54
69823;SHT31;57119;52.516;13.508;2022-07-23T01:42:35;16.39;88.83
69823;SHT31;57119;52.516;13.508;2022-07-23T01:45:01;16.33;88.98
69823;SHT31;57119;52.516;13.508;2022-07-23T01:47:27;16.23;89.19
69823;SHT31;57119;52.516;13.508;2022-07-23T01:49:52;16.16;89.37
69823;SHT31;57119;52.516;13.508;2022-07-23T01:52:17;16.12;89.74
69823;SHT31;57119;52.516;13.508;2022-07-23T01:54:43;16.06;89.88
69823;SHT31;57119;52.516;13.508;2022-07-23T01:57:08;16.01;90.22
69823;SHT31;57119;52.516;13.508;2022-07-23T01:59:34;15.97;90.27
69823;SHT31;57119;52.516;13.508;2022-07-23T02:02:00;15.95;90.26
69823;SHT31;57119;52.516;13.508;2022-07-23T02:04:25;15.97;89.93
69823;SHT31;57119;52.516;13.508;2022-07-23T02:06:51;16.00;90.31
69823;SHT31;57119;52.516;13.508;2022-07-23T02:09:17;16.04;90.04
69823;SHT31;57119;52.516;13.508;2022-07-23T02:11:42;16.09;89.98
69823;SHT31;57119;52.516;13.508;2022-07-23T02:14:08;16.16;89.64
69823;SHT31;57119;52.516;13.508;2022-07-23T02:16:34;16.22;88.81
69823;SHT31;57119;52.516;13.508;2022-07-23T02:18:59;16.23;89.23
69823;SHT31;57119;52.516;13.508;2022-07-23T02:21:25;16.28;89.08
69823;SHT31;57119;52.516;13.508;2022-07-23T02:23:50;16.32;88.73
69823;SHT31;57119;52.516;13.508;2022-07-23T02:26:16;16.36;87.99
69823;SHT31;57119;52.516;13.508;2022-07-23T02:28:41;16.45;87.92
69823;SHT31;57119;52.516;13.508;2022-07-23T02:31:06;16.46;87.40
69823;SHT31;57119;52.516;13.508;2022-07-23T02:33:32;16.50;87.33
69823;SHT31;57119;52.516;13.508;2022-07-23T02:35:58;16.59;87.38
69823;SHT31;57119;52.516;13.508;2022-07-23T02:38:24;16.57;87.74
69823;SHT31;57119;52.516;13.508;2022-07-23T02:40:49;16.53;87.33
69823;SHT31;57119;52.516;13.508;2022-07-23T02:43:14;16.55;87.81
69823;SHT31;57119;52.516;13.508;2022-07-23T02:45:40;16.49;87.30
69823;SHT31;57119;52.516;13.508;2022-07-23T02:48:08;16.48;87.39
69823;SHT31;57119;52.516;13.508;2022-07-23T02:50:34;16.53;87.07
69823;SHT31;57119;52.516;13.508;2022-07-23T02:53:00;16.45;87.39
69823;SHT31;57119;52.516;13.508;2022-07-23T02:55:28;16.43;87.34
69823;SHT31;57119;52.516;13.508;2022-07-23T02:57:54;16.45;87.73
69823;SHT31;57119;52.516;13.508;2022-07-23T03:00:19;16.39;87.33
69823;SHT31;57119;52.516;13.508;2022-07-23T03:02:45;16.38;87.75
69823;SHT31;57119;52.516;13.508;2022-07-23T03:05:10;16.38;87.68
69823;SHT31;57119;52.516;13.508;2022-07-23T03:07:36;16.34;87.62
69823;SHT31;57119;52.516;13.508;2022-07-23T03:10:01;16.36;88.11
69823;SHT31;57119;52.516;13.508;2022-07-23T03:12:26;16.29;87.78
69823;SHT31;57119;52.516;13.508;2022-07-23T03:14:52;16.28;88.06
69823;SHT31;57119;52.516;13.508;2022-07-23T03:17:17;16.25;88.00
69823;SHT31;57119;52.516;13.508;2022-07-23T03:19:42;16.26;88.05
69823;SHT31;57119;52.516;13.508;2022-07-23T03:22:08;16.25;88.03
69823;SHT31;57119;52.516;13.508;2022-07-23T03:24:33;16.23;88.40
69823;SHT31;57119;52.516;13.508;2022-07-23T03:27:27;16.25;88.34
69823;SHT31;57119;52.516;13.508;2022-07-23T03:29:54;16.33;88.36
69823;SHT31;57119;52.516;13.508;2022-07-23T03:32:20;16.33;87.99
69823;SHT31;57119;52.516;13.508;2022-07-23T03:34:45;16.26;88.08
69823;SHT31;57119;52.516;13.508;2022-07-23T03:37:11;16.26;88.29
69823;SHT31;57119;52.516;13.508;2022-07-23T03:39:36;16.15;88.33
69823;SHT31;57119;52.516;13.508;2022-07-23T03:42:02;16.21;88.50
69823;SHT31;57119;52.516;13.508;2022-07-23T03:44:27;16.26;88.05
69823;SHT31;57119;52.516;13.508;2022-07-23T03:46:53;16.30;87.98
69823;SHT31;57119;52.516;13.508;2022-07-23T03:49:18;16.26;87.83
69823;SHT31;57119;52.516;13.508;2022-07-23T03:51:43;16.25;87.95
69823;SHT31;57119;52.516;13.508;2022-07-23T03:54:09;16.32;87.60
69823;SHT31;57119;52.516;13.508;2022-07-23T03:56:34;16.25;87.86
69823;SHT31;57119;52.516;13.508;2022-07-23T03:59:00;16.21;87.70
69823;SHT31;57119;52.516;13.508;2022-07-23T04:01:26;16.18;87.43
69823;SHT31;57119;52.516;13.508;2022-07-23T04:03:51;16.18;86.88
69823;SHT31;57119;52.516;13.508;2022-07-23T04:06:16;16.22;87.38
69823;SHT31;57119;52.516;13.508;2022-07-23T04:08:42;16.19;86.54
69823;SHT31;57119;52.516;13.508;2022-07-23T04:11:07;16.26;85.82
69823;SHT31;57119;52.516;13.508;2022-07-23T04:13:32;16.29;86.13
69823;SHT31;57119;52.516;13.508;2022-07-23T04:15:58;16.30;85.91
69823;SHT31;57119;52.516;13.508;2022-07-23T04:18:23;16.32;86.53
69823;SHT31;57119;52.516;13.508;2022-07-23T04:20:51;16.34;87.08
69823;SHT31;57119;52.516;13.508;2022-07-23T04:23:16;16.28;86.86
69823;SHT31;57119;52.516;13.508;2022-07-23T04:25:42;16.32;86.30
69823;SHT31;57119;52.516;13.508;2022-07-23T04:28:07;16.28;86.60
69823;SHT31;57119;52.516;13.508;2022-07-23T04:30:33;16.34;85.88
69823;SHT31;57119;52.516;13.508;2022-07-23T04:32:58;16.23;85.83
69823;SHT31;57119;52.516;13.508;2022-07-23T04:35:24;16.25;85.67
69823;SHT31;57119;52.516;13.508;2022-07-23T04:37:50;16.29;85.80
69823;SHT31;57119;52.516;13.508;2022-07-23T04:40:16;16.23;85.69
69823;SHT31;57119;52.516;13.508;2022-07-23T04:42:41;16.28;85.39
69823;SHT31;57119;52.516;13.508;2022-07-23T04:45:07;16.26;85.03
69823;SHT31;57119;52.516;13.508;2022-07-23T04:47:33;16.26;86.13
69823;SHT31;57119;52.516;13.508;2022-07-23T04:49:58;16.33;86.82
69823;SHT31;57119;52.516;13.508;2022-07-23T04:52:24;16.21;88.12
69823;SHT31;57119;52.516;13.508;2022-07-23T04:54:50;16.09;91.20
69823;SHT31;57119;52.516;13.508;2022-07-23T04:57:15;16.08;91.53
69823;SHT31;57119;52.516;13.508;2022-07-23T04:59:41;15.95;91.55
69823;SHT31;57119;52.516;13.508;2022-07-23T05:02:06;15.77;92.39
69823;SHT31;57119;52.516;13.508;2022-07-23T05:04:32;15.74;92.81
69823;SHT31;57119;52.516;13.508;2022-07-23T05:06:57;15.84;92.85
69823;SHT31;57119;52.516;13.508;2022-07-23T05:09:23;15.84;92.99
69823;SHT31;57119;52.516;13.508;2022-07-23T05:11:49;15.85;93.35
69823;SHT31;57119;52.516;13.508;2022-07-23T05:14:14;15.74;93.51
69823;SHT31;57119;52.516;13.508;2022-07-23T05:16:39;15.67;93.01
69823;SHT31;57119;52.516;13.508;2022-07-23T05:19:05;15.74;92.80
69823;SHT31;57119;52.516;13.508;2022-07-23T05:21:30;15.70;93.09
69823;SHT31;57119;52.516;13.508;2022-07-23T05:23:56;15.70;92.02
69823;SHT31;57119;52.516;13.508;2022-07-23T05:26:21;15.75;93.46
69823;SHT31;57119;52.516;13.508;2022-07-23T05:28:47;15.77;93.20
69823;SHT31;57119;52.516;13.508;2022-07-23T05:31:12;15.73;93.18
69823;SHT31;57119;52.516;13.508;2022-07-23T05:33:37;15.74;92.82
69823;SHT31;57119;52.516;13.508;2022-07-23T05:36:04;15.80;93.02
69823;SHT31;57119;52.516;13.508;2022-07-23T05:38:30;15.67;91.43
69823;SHT31;57119;52.516;13.508;2022-07-23T05:40:55;15.70;91.97
69823;SHT31;57119;52.516;13.508;2022-07-23T05:43:21;15.60;91.96
69823;SHT31;57119;52.516;13.508;2022-07-23T05:45:46;15.64;92.76
69823;SHT31;57119;52.516;13.508;2022-07-23T05:48:12;15.67;93.36
69823;SHT31;57119;52.516;13.508;2022-07-23T05:50:37;15.73;93.97
69823;SHT31;57119;52.516;13.508;2022-07-23T05:53:03;15.78;93.03
69823;SHT31;57119;52.516;13.508;2022-07-23T05:55:28;15.80;92.15
69823;SHT31;57119;52.516;13.508;2022-07-23T05:57:56;15.67;91.82
69823;SHT31;57119;52.516;13.508;2022-07-23T06:00:22;15.42;91.68
69823;SHT31;57119;52.516;13.508;2022-07-23T06:02:47;15.57;91.69
69823;SHT31;57119;52.516;13.508;2022-07-23T06:05:13;15.58;93.15
69823;SHT31;57119;52.516;13.508;2022-07-23T06:07:38;15.63;93.71
69823;SHT31;57119;52.516;13.508;2022-07-23T06:10:04;15.63;94.62
69823;SHT31;57119;52.516;13.508;2022-07-23T06:12:29;15.63;95.53
69823;SHT31;57119;52.516;13.508;2022-07-23T06:14:55;15.70;94.18
69823;SHT31;57119;52.516;13.508;2022-07-23T06:17:20;15.70;95.84
69823;SHT31;57119;52.516;13.508;2022-07-23T06:19:46;15.75;95.51
69823;SHT31;57119;52.516;13.508;2022-07-23T06:22:11;15.74;95.42
69823;SHT31;57119;52.516;13.508;2022-07-23T06:24:37;15.74;95.29
69823;SHT31;57119;52.516;13.508;2022-07-23T06:27:03;15.80;94.09
69823;SHT31;57119;52.516;13.508;2022-07-23T06:29:28;15.74;92.82
69823;SHT31;57119;52.516;13.508;2022-07-23T06:31:53;15.70;94.73
69823;SHT31;57119;52.516;13.508;2022-07-23T06:34:19;15.67;94.65
69823;SHT31;57119;52.516;13.508;2022-07-23T06:36:44;15.67;94.37
69823;SHT31;57119;52.516;13.508;2022-07-23T06:39:09;15.70;95.61
69823;SHT31;57119;52.516;13.508;2022-07-23T06:41:35;15.74;95.82
69823;SHT31;57119;52.516;13.508;2022-07-23T06:44:00;15.94;95.70
69823;SHT31;57119;52.516;13.508;2022-07-23T06:46:26;15.90;94.74
69823;SHT31;57119;52.516;13.508;2022-07-23T06:48:51;15.83;93.59
69823;SHT31;57119;52.516;13.508;2022-07-23T06:51:16;15.56;94.33
69823;SHT31;57119;52.516;13.508;2022-07-23T06:53:42;15.58;94.77
69823;SHT31;57119;52.516;13.508;2022-07-23T06:56:07;15.77;94.78
69823;SHT31;57119;52.516;13.508;2022-07-23T06:58:33;15.91;94.03
69823;SHT31;57119;52.516;13.508;2022-07-23T07:00:58;15.94;94.01
69823;SHT31;57119;52.516;13.508;2022-07-23T07:03:23;15.90;93.08
69823;SHT31;57119;52.516;13.508;2022-07-23T07:05:49;16.06;93.07
69823;SHT31;57119;52.516;13.508;2022-07-23T07:08:15;15.87;92.52
69823;SHT31;57119;52.516;13.508;2022-07-23T07:10:40;15.74;92.87
69823;SHT31;57119;52.516;13.508;2022-07-23T07:13:05;15.77;92.48
69823;SHT31;57119;52.516;13.508;2022-07-23T07:15:31;15.84;92.92
69823;SHT31;57119;52.516;13.508;2022-07-23T07:17:56;15.73;92.87
69823;SHT31;57119;52.516;13.508;2022-07-23T07:20:21;16.00;91.34
69823;SHT31;57119;52.516;13.508;2022-07-23T07:22:48;16.05;92.39
69823;SHT31;57119;52.516;13.508;2022-07-23T07:25:13;16.12;91.39
69823;SHT31;57119;52.516;13.508;2022-07-23T07:27:39;16.28;90.78
69823;SHT31;57119;52.516;13.508;2022-07-23T07:30:05;16.36;90.81
69823;SHT31;57119;52.516;13.508;2022-07-23T07:32:31;16.63;92.02
69823;SHT31;57119;52.516;13.508;2022-07-23T07:34:57;16.79;91.46
69823;SHT31;57119;52.516;13.508;2022-07-23T07:37:23;16.92;89.77
69823;SHT31;57119;52.516;13.508;2022-07-23T07:39:48;17.14;91.09
69823;SHT31;57119;52.516;13.508;2022-07-23T07:42:14;17.32;88.49
69823;SHT31;57119;52.516;13.508;2022-07-23T07:44:39;17.40;89.01
69823;SHT31;57119;52.516;13.508;2022-07-23T07:47:04;17.42;88.43
69823;SHT31;57119;52.516;13.508;2022-07-23T07:49:30;17.73;89.94
69823;SHT31;57119;52.516;13.508;2022-07-23T07:51:55;17.80;88.04
69823;SHT31;57119;52.516;13.508;2022-07-23T07:54:20;17.90;88.93
69823;SHT31;57119;52.516;13.508;2022-07-23T07:56:46;17.87;87.89
69823;SHT31;57119;52.516;13.508;2022-07-23T07:59:11;17.66;88.75
69823;SHT31;57119;52.516;13.508;2022-07-23T08:01:37;17.61;88.45
69823;SHT31;57119;52.516;13.508;2022-07-23T08:04:02;17.91;88.94
69823;SHT31;57119;52.516;13.508;2022-07-23T08:06:28;18.17;88.19
69823;SHT31;57119;52.516;13.508;2022-07-23T08:08:53;18.43;87.29
69823;SHT31;57119;52.516;13.508;2022-07-23T08:11:18;18.58;86.01
69823;SHT31;57119;52.516;13.508;2022-07-23T08:13:44;18.73;85.35
69823;SHT31;57119;52.516;13.508;2022-07-23T08:16:12;18.93;85.87
69823;SHT31;57119;52.516;13.508;2022-07-23T08:18:37;19.43;83.92
69823;SHT31;57119;52.516;13.508;2022-07-23T08:21:03;20.36;81.68
69823;SHT31;57119;52.516;13.508;2022-07-23T08:23:30;21.90;79.43
69823;SHT31;57119;52.516;13.508;2022-07-23T08:25:56;22.02;75.52
69823;SHT31;57119;52.516;13.508;2022-07-23T08:28:22;23.07;73.07
69823;SHT31;57119;52.516;13.508;2022-07-23T08:30:48;23.51;70.69
69823;SHT31;57119;52.516;13.508;2022-07-23T08:33:15;24.09;69.54
69823;SHT31;57119;52.516;13.508;2022-07-23T08:35:46;23.76;68.00
69823;SHT31;57119;52.516;13.508;2022-07-23T08:38:15;23.98;68.45
69823;SHT31;57119;52.516;13.508;2022-07-23T08:40:43;24.92;67.21
69823;SHT31;57119;52.516;13.508;2022-07-23T08:43:12;24.03;67.48
69823;SHT31;57119;52.516;13.508;2022-07-23T08:45:45;23.34;68.80
69823;SHT31;57119;52.516;13.508;2022-07-23T08:48:12;23.13;69.04
69823;SHT31;57119;52.516;13.508;2022-07-23T08:50:42;23.25;68.32
69823;SHT31;57119;52.516;13.508;2022-07-23T08:53:08;23.95;67.28
69823;SHT31;57119;52.516;13.508;2022-07-23T08:55:33;24.05;67.07
69823;SHT31;57119;52.516;13.508;2022-07-23T08:58:00;23.96;66.70
69823;SHT31;57119;52.516;13.508;2022-07-23T09:00:26;24.63;63.85
69823;SHT31;57119;52.516;13.508;2022-07-23T09:02:55;25.09;63.18
69823;SHT31;57119;52.516;13.508;2022-07-23T09:05:21;25.51;61.65
69823;SHT31;57119;52.516;13.508;2022-07-23T09:08:07;25.36;62.03
69823;SHT31;57119;52.516;13.508;2022-07-23T09:10:47;25.62;59.97
69823;SHT31;57119;52.516;13.508;2022-07-23T09:13:38;24.78;63.99
69823;SHT31;57119;52.516;13.508;2022-07-23T09:16:15;24.71;62.19
69823;SHT31;57119;52.516;13.508;2022-07-23T09:24:01;26.64;58.10
69823;SHT31;57119;52.516;13.508;2022-07-23T09:26:41;26.05;57.55
69823;SHT31;57119;52.516;13.508;2022-07-23T09:29:17;26.94;55.84
69823;SHT31;57119;52.516;13.508;2022-07-23T09:31:54;27.51;55.67
69823;SHT31;57119;52.516;13.508;2022-07-23T09:34:28;26.93;57.93
69823;SHT31;57119;52.516;13.508;2022-07-23T09:37:18;26.12;58.32
69823;SHT31;57119;52.516;13.508;2022-07-23T09:39:46;25.40;60.09
69823;SHT31;57119;52.516;13.508;2022-07-23T09:44:46;24.13;60.45
69823;SHT31;57119;52.516;13.508;2022-07-23T09:47:12;23.66;63.32
69823;SHT31;57119;52.516;13.508;2022-07-23T09:49:37;23.78;62.62
69823;SHT31;57119;52.516;13.508;2022-07-23T09:52:03;24.68;62.11
69823;SHT31;57119;52.516;13.508;2022-07-23T09:54:37;25.90;59.24
69823;SHT31;57119;52.516;13.508;2022-07-23T09:57:08;25.95;58.27
69823;SHT31;57119;52.516;13.508;2022-07-23T09:59:37;26.45;57.54
69823;SHT31;57119;52.516;13.508;2022-07-23T10:02:04;26.93;56.26
69823;SHT31;57119;52.516;13.508;2022-07-23T10:04:31;27.96;53.21
69823;SHT31;57119;52.516;13.508;2022-07-23T10:06:59;28.74;50.18
69823;SHT31;57119;52.516;13.508;2022-07-23T10:09:28;29.15;48.65
69823;SHT31;57119;52.516;13.508;2022-07-23T10:11:57;29.23;47.87
69823;SHT31;57119;52.516;13.508;2022-07-23T10:14:34;29.23;48.73
69823;SHT31;57119;52.516;13.508;2022-07-23T10:17:03;29.09;49.11
69823;SHT31;57119;52.516;13.508;2022-07-23T10:19:29;29.08;50.73
69823;SHT31;57119;52.516;13.508;2022-07-23T10:21:58;29.91;48.82
69823;SHT31;57119;52.516;13.508;2022-07-23T10:24:30;29.02;49.81
69823;SHT31;57119;52.516;13.508;2022-07-23T10:30:30;26.86;53.00
69823;SHT31;57119;52.516;13.508;2022-07-23T10:38:51;29.30;49.70
69823;SHT31;57119;52.516;13.508;2022-07-23T10:41:33;29.36;46.25
69823;SHT31;57119;52.516;13.508;2022-07-23T10:44:20;28.30;50.96
69823;SHT31;57119;52.516;13.508;2022-07-23T10:47:01;28.58;48.90
69823;SHT31;57119;52.516;13.508;2022-07-23T10:49:28;29.76;48.07
69823;SHT31;57119;52.516;13.508;2022-07-23T10:54:56;28.72;48.46
69823;SHT31;57119;52.516;13.508;2022-07-23T10:57:24;28.58;48.98
69823;SHT31;57119;52.516;13.508;2022-07-23T11:02:31;28.47;48.86
69823;SHT31;57119;52.516;13.508;2022-07-23T11:05:03;29.34;49.61
69823;SHT31;57119;52.516;13.508;2022-07-23T11:07:28;28.45;48.05
69823;SHT31;57119;52.516;13.508;2022-07-23T11:09:54;28.03;48.20
69823;SHT31;57119;52.516;13.508;2022-07-23T11:17:22;28.57;48.91
69823;SHT31;57119;52.516;13.508;2022-07-23T11:20:12;28.07;49.06
69823;SHT31;57119;52.516;13.508;2022-07-23T11:25:12;29.54;47.61
69823;SHT31;57119;52.516;13.508;2022-07-23T11:27:41;30.74;44.79
69823;SHT31;57119;52.516;13.508;2022-07-23T11:30:08;29.71;47.44
69823;SHT31;57119;52.516;13.508;2022-07-23T11:32:41;30.80;44.44
69823;SHT31;57119;52.516;13.508;2022-07-23T11:35:20;30.57;43.16
69823;SHT31;57119;52.516;13.508;2022-07-23T11:37:47;30.94;46.48
69823;SHT31;57119;52.516;13.508;2022-07-23T11:40:15;30.06;46.27
69823;SHT31;57119;52.516;13.508;2022-07-23T11:43:02;29.66;47.43
69823;SHT31;57119;52.516;13.508;2022-07-23T11:45:44;28.40;49.05
69823;SHT31;57119;52.516;13.508;2022-07-23T11:48:19;28.13;48.86
69823;SHT31;57119;52.516;13.508;2022-07-23T11:50:45;28.23;50.59
69823;SHT31;57119;52.516;13.508;2022-07-23T11:53:11;27.66;51.62
69823;SHT31;57119;52.516;13.508;2022-07-23T11:55:36;27.47;49.81
69823;SHT31;57119;52.516;13.508;2022-07-23T11:58:02;26.99;51.65
69823;SHT31;57119;52.516;13.508;2022-07-23T12:00:29;26.78;53.17
69823;SHT31;57119;52.516;13.508;2022-07-23T12:02:57;26.68;52.95
69823;SHT31;57119;52.516;13.508;2022-07-23T12:05:26;27.21;52.36
69823;SHT31;57119;52.516;13.508;2022-07-23T12:07:54;27.35;52.43
69823;SHT31;57119;52.516;13.508;2022-07-23T12:10:49;27.83;51.51
69823;SHT31;57119;52.516;13.508;2022-07-23T12:13:16;27.79;52.46
69823;SHT31;57119;52.516;13.508;2022-07-23T12:15:48;27.26;50.57
69823;SHT31;57119;52.516;13.508;2022-07-23T12:18:17;27.04;52.16
69823;SHT31;57119;52.516;13.508;2022-07-23T12:20:56;26.56;54.17
69823;SHT31;57119;52.516;13.508;2022-07-23T12:23:23;27.68;51.82
69823;SHT31;57119;52.516;13.508;2022-07-23T12:25:49;27.62;49.60
69823;SHT31;57119;52.516;13.508;2022-07-23T12:28:16;28.61;49.30
69823;SHT31;57119;52.516;13.508;2022-07-23T12:30:49;30.33;46.56
69823;SHT31;57119;52.516;13.508;2022-07-23T12:33:25;31.97;42.99
69823;SHT31;57119;52.516;13.508;2022-07-23T12:35:53;32.86;40.26
69823;SHT31;57119;52.516;13.508;2022-07-23T12:38:21;30.46;44.38
69823;SHT31;57119;52.516;13.508;2022-07-23T12:40:49;29.53;46.92
69823;SHT31;57119;52.516;13.508;2022-07-23T12:43:24;30.93;45.17
69823;SHT31;57119;52.516;13.508;2022-07-23T12:46:03;30.88;44.36
69823;SHT31;57119;52.516;13.508;2022-07-23T12:48:30;30.74;44.18
69823;SHT31;57119;52.516;13.508;2022-07-23T12:51:20;30.35;44.58
69823;SHT31;57119;52.516;13.508;2022-07-23T12:53:53;29.61;45.84
69823;SHT31;57119;52.516;13.508;2022-07-23T12:56:21;28.58;47.65
69823;SHT31;57119;52.516;13.508;2022-07-23T12:58:52;28.39;48.39
69823;SHT31;57119;52.516;13.508;2022-07-23T13:04:07;27.42;48.54
69823;SHT31;57119;52.516;13.508;2022-07-23T13:06:35;27.23;50.23
69823;SHT31;57119;52.516;13.508;2022-07-23T13:09:02;26.89;51.86
69823;SHT31;57119;52.516;13.508;2022-07-23T13:11:28;26.59;51.49
69823;SHT31;57119;52.516;13.508;2022-07-23T13:13:53;26.72;52.49
69823;SHT31;57119;52.516;13.508;2022-07-23T13:16:19;27.79;49.73
69823;SHT31;57119;52.516;13.508;2022-07-23T13:18:44;28.43;47.85
69823;SHT31;57119;52.516;13.508;2022-07-23T13:21:10;28.18;48.82
69823;SHT31;57119;52.516;13.508;2022-07-23T13:23:36;29.81;45.16
69823;SHT31;57119;52.516;13.508;2022-07-23T13:26:01;29.85;46.25
69823;SHT31;57119;52.516;13.508;2022-07-23T13:28:27;30.57;44.08
69823;SHT31;57119;52.516;13.508;2022-07-23T13:30:52;29.08;45.79
69823;SHT31;57119;52.516;13.508;2022-07-23T13:33:20;29.42;47.04
69823;SHT31;57119;52.516;13.508;2022-07-23T13:35:45;28.20;47.93
69823;SHT31;57119;52.516;13.508;2022-07-23T13:38:11;29.51;45.60
69823;SHT31;57119;52.516;13.508;2022-07-23T13:40:38;30.45;43.31
69823;SHT31;57119;52.516;13.508;2022-07-23T13:43:06;30.63;42.57
69823;SHT31;57119;52.516;13.508;2022-07-23T13:45:32;28.96;46.13
69823;SHT31;57119;52.516;13.508;2022-07-23T13:47:57;28.37;47.34
69823;SHT31;57119;52.516;13.508;2022-07-23T13:50:22;28.28;47.64
69823;SHT31;57119;52.516;13.508;2022-07-23T13:52:49;28.94;48.45
69823;SHT31;57119;52.516;13.508;2022-07-23T13:55:14;31.41;44.83
69823;SHT31;57119;52.516;13.508;2022-07-23T13:57:39;31.39;42.03
69823;SHT31;57119;52.516;13.508;2022-07-23T14:00:07;30.60;44.24
69823;SHT31;57119;52.516;13.508;2022-07-23T14:02:35;30.39;43.67
69823;SHT31;57119;52.516;13.508;2022-07-23T14:05:00;30.05;44.88
69823;SHT31;57119;52.516;13.508;2022-07-23T14:07:25;29.10;47.21
69823;SHT31;57119;52.516;13.508;2022-07-23T14:09:51;27.97;46.99
69823;SHT31;57119;52.516;13.508;2022-07-23T14:12:16;27.49;48.68
69823;SHT31;57119;52.516;13.508;2022-07-23T14:14:42;26.96;49.26
69823;SHT31;57119;52.516;13.508;2022-07-23T14:17:08;26.76;50.12
69823;SHT31;57119;52.516;13.508;2022-07-23T14:19:34;25.75;51.01
69823;SHT31;57119;52.516;13.508;2022-07-23T14:21:59;25.95;51.46
69823;SHT31;57119;52.516;13.508;2022-07-23T14:24:25;26.06;51.27
69823;SHT31;57119;52.516;13.508;2022-07-23T14:26:50;25.49;52.25
69823;SHT31;57119;52.516;13.508;2022-07-23T14:29:15;25.97;52.26
69823;SHT31;57119;52.516;13.508;2022-07-23T14:31:41;26.08;51.68
69823;SHT31;57119;52.516;13.508;2022-07-23T14:34:06;28.06;49.81
69823;SHT31;57119;52.516;13.508;2022-07-23T14:36:31;28.82;46.65
69823;SHT31;57119;52.516;13.508;2022-07-23T14:38:57;28.18;49.13
69823;SHT31;57119;52.516;13.508;2022-07-23T14:41:22;27.76;48.83
69823;SHT31;57119;52.516;13.508;2022-07-23T14:43:47;26.78;50.35
69823;SHT31;57119;52.516;13.508;2022-07-23T14:46:13;29.87;45.18
69823;SHT31;57119;52.516;13.508;2022-07-23T14:48:39;31.85;40.56
69823;SHT31;57119;52.516;13.508;2022-07-23T14:51:04;31.46;42.31
69823;SHT31;57119;52.516;13.508;2022-07-23T14:53:30;29.70;45.24
69823;SHT31;57119;52.516;13.508;2022-07-23T14:55:55;28.39;46.51
69823;SHT31;57119;52.516;13.508;2022-07-23T14:58:22;28.20;45.92
69823;SHT31;57119;52.516;13.508;2022-07-23T15:00:48;27.81;46.85
69823;SHT31;57119;52.516;13.508;2022-07-23T15:03:13;27.18;48.96
69823;SHT31;57119;52.516;13.508;2022-07-23T15:05:39;28.10;46.15
69823;SHT31;57119;52.516;13.508;2022-07-23T15:08:04;28.45;47.27
69823;SHT31;57119;52.516;13.508;2022-07-23T15:10:29;29.67;43.60
69823;SHT31;57119;52.516;13.508;2022-07-23T15:12:55;29.87;42.61
69823;SHT31;57119;52.516;13.508;2022-07-23T15:15:20;28.58;44.74
69823;SHT31;57119;52.516;13.508;2022-07-23T15:17:46;28.07;46.38
69823;SHT31;57119;52.516;13.508;2022-07-23T15:20:11;27.55;46.82
69823;SHT31;57119;52.516;13.508;2022-07-23T15:22:37;28.54;44.58
69823;SHT31;57119;52.516;13.508;2022-07-23T15:25:02;30.11;42.44
69823;SHT31;57119;52.516;13.508;2022-07-23T15:27:28;30.46;43.75
69823;SHT31;57119;52.516;13.508;2022-07-23T15:29:53;31.06;41.41
69823;SHT31;57119;52.516;13.508;2022-07-23T15:32:18;31.18;40.22
69823;SHT31;57119;52.516;13.508;2022-07-23T15:34:44;31.57;39.62
69823;SHT31;57119;52.516;13.508;2022-07-23T15:37:09;30.01;42.10
69823;SHT31;57119;52.516;13.508;2022-07-23T15:39:34;30.37;41.77
69823;SHT31;57119;52.516;13.508;2022-07-23T15:42:01;31.61;39.68
69823;SHT31;57119;52.516;13.508;2022-07-23T15:44:26;29.91;41.96
69823;SHT31;57119;52.516;13.508;2022-07-23T15:46:52;28.68;43.78